createdAt,value
2023-02-18T00:02:14.891Z,2.05
2023-02-18T00:07:38.248Z,1.42
2023-02-18T00:13:01.767Z,1.65
2023-02-18T00:18:23.574Z,2.00
2023-02-18T00:23:45.389Z,1.25
2023-02-18T00:29:07.202Z,3.50
2023-02-18T00:34:28.997Z,2.17
2023-02-18T00:39:50.866Z,1.38
2023-02-18T00:45:12.704Z,1.40
2023-02-18T00:50:34.462Z,1.83
2023-02-18T00:55:56.481Z,0.85
2023-02-18T01:01:19.179Z,2.03
2023-02-18T01:06:41.060Z,1.08
2023-02-18T01:12:03.254Z,1.35
2023-02-18T01:17:25.058Z,2.38
2023-02-18T01:22:46.888Z,0.88
2023-02-18T01:28:11.540Z,1.77
2023-02-18T01:33:33.595Z,1.53
2023-02-18T01:38:55.428Z,1.42
2023-02-18T01:44:20.805Z,0.73
2023-02-18T01:49:46.298Z,0.70
2023-02-18T02:00:31.200Z,2.53
2023-02-18T02:05:53.012Z,1.10
2023-02-18T02:11:52.499Z,1.58
2023-02-18T02:17:33.440Z,1.80
2023-02-18T02:22:55.134Z,0.82
2023-02-18T02:28:25.678Z,0.80
2023-02-18T02:34:05.989Z,0.73
2023-02-18T02:39:39.978Z,1.60
2023-02-18T02:45:06.669Z,1.05
2023-02-18T02:50:34.648Z,1.23
2023-02-18T02:55:56.490Z,1.52
2023-02-18T03:01:32.526Z,0.88
2023-02-18T03:07:38.209Z,1.05
2023-02-18T03:13:26.929Z,0.80
2023-02-18T03:18:57.457Z,1.08
2023-02-18T03:24:32.805Z,0.82
2023-02-18T03:30:01.685Z,0.60
2023-02-18T03:35:23.991Z,0.73
2023-02-18T03:40:45.798Z,2.67
2023-02-18T03:46:08.481Z,0.90
2023-02-18T03:51:30.740Z,1.02
2023-02-18T03:56:52.473Z,0.30
2023-02-18T04:02:14.281Z,0.50
2023-02-18T04:07:36.357Z,0.75
2023-02-18T04:12:58.194Z,0.43
2023-02-18T04:18:20.444Z,0.30
2023-02-18T04:23:42.261Z,0.30
2023-02-18T04:29:04.102Z,0.40
2023-02-18T04:34:26.258Z,1.08
2023-02-18T04:39:48.007Z,0.20
2023-02-18T04:45:10.045Z,0.68
2023-02-18T04:50:31.904Z,0.45
2023-02-18T04:55:54.680Z,0.32
2023-02-18T05:01:16.620Z,0.32
2023-02-18T05:06:40.142Z,0.60
2023-02-18T05:12:01.905Z,0.30
2023-02-18T05:17:23.674Z,0.22
2023-02-18T05:22:45.440Z,0.40
2023-02-18T05:28:07.335Z,1.45
2023-02-18T05:33:29.126Z,0.43
2023-02-18T05:38:50.952Z,0.20
2023-02-18T05:44:31.055Z,0.10
2023-02-18T05:49:52.896Z,0.57
2023-02-18T05:55:14.921Z,0.15
2023-02-18T06:00:36.766Z,0.40
2023-02-18T06:05:58.609Z,0.20
2023-02-18T06:11:20.444Z,0.32
2023-02-18T06:16:42.266Z,0.43
2023-02-18T06:22:04.854Z,0.10
2023-02-18T06:27:26.762Z,0.10
2023-02-18T06:32:48.498Z,0.63
2023-02-18T06:38:10.266Z,0.75
2023-02-18T06:43:32.522Z,0.30
2023-02-18T06:48:54.294Z,0.80
2023-02-18T06:54:16.017Z,0.15
2023-02-18T06:59:37.752Z,0.10
2023-02-18T07:04:59.626Z,1.08
2023-02-18T07:10:21.457Z,0.28
2023-02-18T07:15:43.179Z,1.38
2023-02-18T07:21:05.105Z,0.47
2023-02-18T07:26:26.902Z,3.28
2023-02-18T07:31:48.895Z,3.10
2023-02-18T07:37:12.557Z,5.68
2023-02-18T07:42:34.347Z,7.28
2023-02-18T07:47:56.108Z,6.53
2023-02-18T07:53:17.959Z,8.30
2023-02-18T07:58:40.188Z,6.10
2023-02-18T08:04:02.041Z,6.40
2023-02-18T08:09:23.873Z,3.28
2023-02-18T08:14:46.251Z,6.78
2023-02-18T08:20:08.692Z,3.05
2023-02-18T08:25:30.791Z,4.68
2023-02-18T08:30:54.284Z,3.28
2023-02-18T08:36:16.164Z,6.85
2023-02-18T08:41:37.935Z,6.25
2023-02-18T08:46:59.677Z,3.08
2023-02-18T08:52:22.318Z,7.25
2023-02-18T08:57:44.166Z,8.02
2023-02-18T09:03:06.452Z,25.35
2023-02-18T09:08:28.694Z,37.13
2023-02-18T09:13:50.514Z,44.58
2023-02-18T09:19:12.285Z,53.47
2023-02-18T09:24:42.180Z,19.20
2023-02-18T09:30:05.592Z,26.05
2023-02-18T09:35:27.405Z,38.80
2023-02-18T09:40:52.253Z,47.67
2023-02-18T09:46:17.037Z,42.53
2023-02-18T09:51:38.875Z,24.07
2023-02-18T09:57:01.817Z,21.50
2023-02-18T10:02:24.621Z,18.92
2023-02-18T10:07:49.429Z,16.73
2023-02-18T10:13:14.893Z,15.77
2023-02-18T10:24:33.937Z,15.52
2023-02-18T10:30:28.351Z,12.88
2023-02-18T10:36:08.042Z,28.20
2023-02-18T10:41:41.888Z,20.05
2023-02-18T10:47:26.776Z,14.15
2023-02-18T10:52:52.491Z,16.02
2023-02-18T10:58:23.541Z,12.98
2023-02-18T11:03:48.361Z,11.30
2023-02-18T11:09:28.235Z,6.83
2023-02-18T11:15:05.118Z,10.35
2023-02-18T11:20:34.329Z,13.82
2023-02-18T11:26:04.928Z,11.35
2023-02-18T11:31:37.513Z,9.27
2023-02-18T11:37:20.076Z,11.82
2023-02-18T11:42:42.083Z,9.48
2023-02-18T11:48:15.115Z,3.33
2023-02-18T11:53:37.869Z,9.57
2023-02-18T11:59:01.642Z,6.15
2023-02-18T12:04:29.978Z,10.07
2023-02-18T12:09:57.192Z,7.57
2023-02-18T12:15:28.320Z,5.63
2023-02-18T12:21:15.513Z,8.60
2023-02-18T12:27:04.327Z,9.20
2023-02-18T12:32:44.087Z,5.40
2023-02-18T12:38:32.840Z,16.67
2023-02-18T12:44:32.353Z,16.17
2023-02-18T12:50:24.134Z,17.08
2023-02-18T12:56:22.894Z,15.70
2023-02-18T13:02:22.654Z,15.35
2023-02-18T13:08:11.084Z,6.50
2023-02-18T13:13:42.444Z,10.00
2023-02-18T13:19:22.474Z,5.45
2023-02-18T13:24:47.906Z,8.32
2023-02-18T13:30:29.280Z,10.18
2023-02-18T13:36:03.994Z,8.02
2023-02-18T13:41:27.486Z,7.53
2023-02-18T13:46:51.078Z,7.07
2023-02-18T13:52:20.637Z,7.97
2023-02-18T13:57:42.881Z,5.05
2023-02-18T14:03:43.449Z,7.55
2023-02-18T14:09:25.729Z,8.57
2023-02-18T14:14:47.761Z,5.53
2023-02-18T14:20:10.358Z,4.10
2023-02-18T14:25:39.953Z,7.65
2023-02-18T14:31:30.036Z,6.47
2023-02-18T14:37:21.567Z,9.77
2023-02-18T14:43:07.631Z,8.10
2023-02-18T14:48:41.628Z,10.85
2023-02-18T14:54:07.457Z,7.07
2023-02-18T14:59:34.874Z,10.77
2023-02-18T15:05:13.265Z,11.80
2023-02-18T15:10:40.661Z,8.43
2023-02-18T15:16:06.372Z,9.15
2023-02-18T15:21:31.640Z,14.38
2023-02-18T15:26:56.764Z,7.32
2023-02-18T15:32:29.448Z,5.78
2023-02-18T15:37:54.753Z,4.88
2023-02-18T15:43:22.693Z,7.60
2023-02-18T15:48:47.426Z,5.53
2023-02-18T15:54:17.188Z,6.20
2023-02-18T15:59:45.992Z,7.57
2023-02-18T16:05:14.174Z,18.25
2023-02-18T16:10:44.564Z,9.68
2023-02-18T16:16:06.759Z,6.30
2023-02-18T16:21:45.167Z,17.38
2023-02-18T16:27:14.900Z,11.25
2023-02-18T16:32:36.781Z,11.88
2023-02-18T16:37:59.206Z,14.07
2023-02-18T16:43:27.139Z,17.48
2023-02-18T16:48:56.063Z,20.67
2023-02-18T16:54:18.562Z,17.17
2023-02-18T16:59:40.376Z,18.60
2023-02-18T17:05:02.148Z,22.98
2023-02-18T17:10:23.949Z,24.20
2023-02-18T17:15:48.660Z,19.85
2023-02-18T17:21:23.590Z,19.83
2023-02-18T17:26:45.546Z,21.83
2023-02-18T17:32:08.294Z,21.92
2023-02-18T17:37:30.706Z,14.57
2023-02-18T17:42:54.791Z,18.63
2023-02-18T17:48:16.720Z,16.13
2023-02-18T17:53:38.491Z,15.77
2023-02-18T17:59:00.747Z,33.42
2023-02-18T18:04:22.821Z,14.98
2023-02-18T18:09:44.803Z,14.57
2023-02-18T18:15:27.274Z,15.60
2023-02-18T18:20:53.113Z,20.70
2023-02-18T18:26:14.918Z,35.97
2023-02-18T18:31:37.723Z,47.72
2023-02-18T18:36:59.719Z,40.58
2023-02-18T18:42:24.598Z,54.30
2023-02-18T18:47:47.881Z,39.63
2023-02-18T18:53:26.012Z,30.95
2023-02-18T18:58:48.966Z,36.88
2023-02-18T19:04:10.745Z,32.92
2023-02-18T19:09:32.522Z,40.45
2023-02-18T19:14:54.270Z,36.65
2023-02-18T19:20:19.261Z,30.30
2023-02-18T19:25:41.153Z,35.90
2023-02-18T19:31:07.015Z,69.45
2023-02-18T19:36:28.908Z,64.90
2023-02-18T19:41:50.661Z,68.28
2023-02-18T19:47:12.467Z,36.28
2023-02-18T19:52:34.992Z,23.98
2023-02-18T19:57:56.915Z,38.80
2023-02-18T20:03:18.781Z,23.35
2023-02-18T20:08:40.541Z,22.40
2023-02-18T20:14:02.326Z,40.08
2023-02-18T20:19:25.286Z,24.90
2023-02-18T20:24:48.153Z,21.17
2023-02-18T20:30:10.859Z,28.50
2023-02-18T20:35:32.779Z,14.38
2023-02-18T20:40:54.595Z,13.10
2023-02-18T20:46:20.933Z,28.92
2023-02-18T20:51:43.711Z,25.75
2023-02-18T20:57:05.518Z,18.65
2023-02-18T21:02:28.319Z,23.23
2023-02-18T21:07:50.094Z,20.85
2023-02-18T21:13:11.892Z,17.33
2023-02-18T21:18:34.287Z,14.95
2023-02-18T21:23:56.114Z,15.15
2023-02-18T21:29:17.995Z,10.32
2023-02-18T21:34:39.973Z,28.83
2023-02-18T21:40:02.385Z,13.52
2023-02-18T21:45:24.432Z,13.45
2023-02-18T21:50:46.223Z,9.02
2023-02-18T21:56:11.956Z,22.35
2023-02-18T22:01:33.724Z,11.23
2023-02-18T22:06:55.503Z,11.98
2023-02-18T22:12:17.669Z,12.38
2023-02-18T22:17:39.490Z,12.63
2023-02-18T22:23:01.235Z,13.93
2023-02-18T22:28:22.959Z,8.48
2023-02-18T22:33:44.696Z,7.07
2023-02-18T22:39:07.740Z,7.05
2023-02-18T22:44:29.511Z,9.32
2023-02-18T22:49:51.257Z,5.00
2023-02-18T22:55:13.047Z,6.93
2023-02-18T23:00:34.834Z,4.30
2023-02-18T23:06:05.335Z,3.08
2023-02-18T23:11:27.314Z,3.08
2023-02-18T23:17:10.596Z,6.38
2023-02-18T23:22:37.977Z,6.85
2023-02-18T23:27:59.740Z,2.13
2023-02-18T23:33:21.504Z,2.25
2023-02-18T23:38:43.380Z,2.67
2023-02-18T23:44:07.507Z,3.00
2023-02-18T23:49:29.366Z,3.40
2023-02-18T23:54:51.231Z,3.47
